sensor_id;sensor_type;location;lat;lon;timestamp;pressure;altitude;pressure_sealevel;temperature;humidity
59289;BME280;45056;47.602;9.886;2023-05-01T00:01:37;92745.84;;;13.30;56.65
59289;BME280;45056;47.602;9.886;2023-05-01T00:04:05;92748.88;;;13.32;56.85
59289;BME280;45056;47.602;9.886;2023-05-01T00:06:33;92740.22;;;13.34;56.71
59289;BME280;45056;47.602;9.886;2023-05-01T00:09:01;92742.47;;;13.35;56.90
59289;BME280;45056;47.602;9.886;2023-05-01T00:11:31;92736.84;;;13.39;56.89
59289;BME280;45056;47.602;9.886;2023-05-01T00:13:59;92740.63;;;13.41;57.21
59289;BME280;45056;47.602;9.886;2023-05-01T00:16:27;92740.63;;;13.41;57.17
59289;BME280;45056;47.602;9.886;2023-05-01T00:18:55;92738.38;;;13.40;57.40
59289;BME280;45056;47.602;9.886;2023-05-01T00:21:22;92741.56;;;13.38;57.59
59289;BME280;45056;47.602;9.886;2023-05-01T00:23:50;92734.13;;;13.39;57.65
59289;BME280;45056;47.602;9.886;2023-05-01T00:26:19;92744.75;;;13.37;58.00
59289;BME280;45056;47.602;9.886;2023-05-01T00:28:48;92737.50;;;13.34;58.15
59289;BME280;45056;47.602;9.886;2023-05-01T00:31:16;92740.38;;;13.30;58.75
59289;BME280;45056;47.602;9.886;2023-05-01T00:33:45;92741.31;;;13.27;59.00
59289;BME280;45056;47.602;9.886;2023-05-01T00:36:13;92732.84;;;13.25;59.19
59289;BME280;45056;47.602;9.886;2023-05-01T00:38:40;92729.81;;;13.23;59.32
59289;BME280;45056;47.602;9.886;2023-05-01T00:41:08;92731.31;;;13.24;59.62
59289;BME280;45056;47.602;9.886;2023-05-01T00:43:36;92728.59;;;13.24;59.75
59289;BME280;45056;47.602;9.886;2023-05-01T00:46:06;92731.31;;;13.24;59.99
59289;BME280;45056;47.602;9.886;2023-05-01T00:48:35;92722.84;;;13.22;60.32
59289;BME280;45056;47.602;9.886;2023-05-01T00:51:06;92719.81;;;13.20;60.77
59289;BME280;45056;47.602;9.886;2023-05-01T00:53:35;92715.09;;;13.20;60.81
59289;BME280;45056;47.602;9.886;2023-05-01T00:56:04;92723.75;;;13.19;60.95
59289;BME280;45056;47.602;9.886;2023-05-01T00:58:32;92718.00;;;13.17;61.24
59289;BME280;45056;47.602;9.886;2023-05-01T01:01:01;92715.00;;;13.15;61.56
59289;BME280;45056;47.602;9.886;2023-05-01T01:03:31;92708.94;;;13.10;61.67
59289;BME280;45056;47.602;9.886;2023-05-01T01:06:09;92707.13;;;13.07;61.94
59289;BME280;45056;47.602;9.886;2023-05-01T01:08:47;92706.09;;;13.05;62.17
59289;BME280;45056;47.602;9.886;2023-05-01T01:11:32;92691.66;;;13.04;62.22
59289;BME280;45056;47.602;9.886;2023-05-01T01:14:12;92698.63;;;13.05;62.45
59289;BME280;45056;47.602;9.886;2023-05-01T01:16:49;92700.44;;;13.08;62.48
59289;BME280;45056;47.602;9.886;2023-05-01T01:22:53;92700.91;;;13.07;63.06
59289;BME280;45056;47.602;9.886;2023-05-01T01:25:58;92700.31;;;13.03;63.35
59289;BME280;45056;47.602;9.886;2023-05-01T01:32:48;92691.41;;;12.93;64.08
59289;BME280;45056;47.602;9.886;2023-05-01T01:35:33;92695.53;;;12.88;64.00
59289;BME280;45056;47.602;9.886;2023-05-01T01:38:12;92696.47;;;12.85;64.03
59289;BME280;45056;47.602;9.886;2023-05-01T01:40:52;92697.22;;;12.86;63.96
59289;BME280;45056;47.602;9.886;2023-05-01T01:43:26;92686.31;;;12.86;63.90
59289;BME280;45056;47.602;9.886;2023-05-01T01:46:02;92694.78;;;12.88;63.78
59289;BME280;45056;47.602;9.886;2023-05-01T01:48:36;92696.47;;;12.85;63.97
59289;BME280;45056;47.602;9.886;2023-05-01T01:51:12;92692.69;;;12.82;63.97
59289;BME280;45056;47.602;9.886;2023-05-01T01:53:48;92696.63;;;12.81;64.17
59289;BME280;45056;47.602;9.886;2023-05-01T01:56:20;92694.50;;;12.76;64.24
59289;BME280;45056;47.602;9.886;2023-05-01T01:58:53;92691.69;;;12.70;64.57
59289;BME280;45056;47.602;9.886;2023-05-01T02:01:24;92693.06;;;12.66;64.67
59289;BME280;45056;47.602;9.886;2023-05-01T02:03:56;92685.78;;;12.63;64.86
59289;BME280;45056;47.602;9.886;2023-05-01T02:06:30;92689.25;;;12.63;64.93
59289;BME280;45056;47.602;9.886;2023-05-01T02:09:02;92694.25;;;12.65;65.00
59289;BME280;45056;47.602;9.886;2023-05-01T02:11:35;92688.06;;;12.64;64.93
59289;BME280;45056;47.602;9.886;2023-05-01T02:14:05;92691.09;;;12.66;65.18
59289;BME280;45056;47.602;9.886;2023-05-01T02:16:36;92680.63;;;12.65;65.24
59289;BME280;45056;47.602;9.886;2023-05-01T02:19:04;92683.06;;;12.63;65.61
59289;BME280;45056;47.602;9.886;2023-05-01T02:21:36;92687.28;;;12.64;65.80
59289;BME280;45056;47.602;9.886;2023-05-01T02:24:06;92681.84;;;12.64;65.90
59289;BME280;45056;47.602;9.886;2023-05-01T02:26:41;92682.91;;;12.66;66.05
59289;BME280;45056;47.602;9.886;2023-05-01T02:29:12;92674.25;;;12.68;66.23
59289;BME280;45056;47.602;9.886;2023-05-01T02:31:40;92678.47;;;12.69;66.21
59289;BME280;45056;47.602;9.886;2023-05-01T02:34:08;92669.06;;;12.70;66.22
59289;BME280;45056;47.602;9.886;2023-05-01T02:36:38;92668.63;;;12.72;66.47
59289;BME280;45056;47.602;9.886;2023-05-01T02:39:06;92672.56;;;12.70;66.62
59289;BME280;45056;47.602;9.886;2023-05-01T02:41:34;92669.06;;;12.70;66.69
59289;BME280;45056;47.602;9.886;2023-05-01T02:44:07;92660.88;;;12.70;66.64
59289;BME280;45056;47.602;9.886;2023-05-01T02:46:42;92674.81;;;12.72;66.64
59289;BME280;45056;47.602;9.886;2023-05-01T02:49:16;92669.66;;;12.74;66.44
59289;BME280;45056;47.602;9.886;2023-05-01T02:51:47;92667.69;;;12.75;66.56
59289;BME280;45056;47.602;9.886;2023-05-01T02:54:16;92666.91;;;12.74;66.69
59289;BME280;45056;47.602;9.886;2023-05-01T02:56:46;92661.47;;;12.74;66.75
59289;BME280;45056;47.602;9.886;2023-05-01T02:59:14;92651.19;;;12.69;66.80
59289;BME280;45056;47.602;9.886;2023-05-01T03:01:42;92663.31;;;12.68;67.03
59289;BME280;45056;47.602;9.886;2023-05-01T03:04:10;92657.56;;;12.66;66.98
59289;BME280;45056;47.602;9.886;2023-05-01T03:06:38;92659.56;;;12.65;67.26
59289;BME280;45056;47.602;9.886;2023-05-01T03:09:07;92653.31;;;12.65;67.19
59289;BME280;45056;47.602;9.886;2023-05-01T03:11:35;92661.06;;;12.66;67.11
59289;BME280;45056;47.602;9.886;2023-05-01T03:14:03;92658.03;;;12.64;67.18
59289;BME280;45056;47.602;9.886;2023-05-01T03:16:31;92651.53;;;12.62;67.00
59289;BME280;45056;47.602;9.886;2023-05-01T03:18:59;92654.13;;;12.56;66.91
59289;BME280;45056;47.602;9.886;2023-05-01T03:21:27;92652.78;;;12.51;66.86
59289;BME280;45056;47.602;9.886;2023-05-01T03:23:55;92662.19;;;12.50;66.76
59289;BME280;45056;47.602;9.886;2023-05-01T03:26:24;92650.97;;;12.48;66.72
59289;BME280;45056;47.602;9.886;2023-05-01T03:28:52;92645.19;;;12.46;66.88
59289;BME280;45056;47.602;9.886;2023-05-01T03:31:21;92656.13;;;12.46;66.85
59289;BME280;45056;47.602;9.886;2023-05-01T03:33:48;92650.38;;;12.44;66.95
59289;BME280;45056;47.602;9.886;2023-05-01T03:36:17;92650.56;;;12.40;66.98
59289;BME280;45056;47.602;9.886;2023-05-01T03:38:45;92651.19;;;12.35;67.19
59289;BME280;45056;47.602;9.886;2023-05-01T03:41:13;92654.34;;;12.34;67.11
59289;BME280;45056;47.602;9.886;2023-05-01T03:43:42;92644.38;;;12.31;66.89
59289;BME280;45056;47.602;9.886;2023-05-01T03:46:10;92644.81;;;12.29;66.74
59289;BME280;45056;47.602;9.886;2023-05-01T03:48:38;92645.72;;;12.26;66.80
59289;BME280;45056;47.602;9.886;2023-05-01T03:51:06;92647.41;;;12.23;66.51
59289;BME280;45056;47.602;9.886;2023-05-01T03:53:34;92642.41;;;12.22;66.31
59289;BME280;45056;47.602;9.886;2023-05-01T03:56:03;92651.06;;;12.20;66.33
59289;BME280;45056;47.602;9.886;2023-05-01T03:58:31;92650.00;;;12.18;66.02
59289;BME280;45056;47.602;9.886;2023-05-01T04:01:01;92651.66;;;12.15;65.95
59289;BME280;45056;47.602;9.886;2023-05-01T04:03:29;92650.94;;;12.15;65.93
59289;BME280;45056;47.602;9.886;2023-05-01T04:05:57;92650.34;;;12.10;65.85
59289;BME280;45056;47.602;9.886;2023-05-01T04:08:25;92650.47;;;12.07;65.65
59289;BME280;45056;47.602;9.886;2023-05-01T04:10:53;92658.84;;;12.03;65.56
59289;BME280;45056;47.602;9.886;2023-05-01T04:13:21;92657.78;;;12.01;65.84
59289;BME280;45056;47.602;9.886;2023-05-01T04:15:49;92653.22;;;11.97;65.70
59289;BME280;45056;47.602;9.886;2023-05-01T04:18:19;92653.34;;;11.94;65.86
59289;BME280;45056;47.602;9.886;2023-05-01T04:20:47;92658.50;;;11.92;65.90
59289;BME280;45056;47.602;9.886;2023-05-01T04:23:15;92654.75;;;11.89;65.79
59289;BME280;45056;47.602;9.886;2023-05-01T04:25:43;92655.19;;;11.88;65.61
59289;BME280;45056;47.602;9.886;2023-05-01T04:28:12;92663.84;;;11.86;65.77
59289;BME280;45056;47.602;9.886;2023-05-01T04:30:40;92660.47;;;11.82;65.76
59289;BME280;45056;47.602;9.886;2023-05-01T04:33:08;92660.19;;;11.80;65.90
59289;BME280;45056;47.602;9.886;2023-05-01T04:35:39;92664.59;;;11.77;65.66
59289;BME280;45056;47.602;9.886;2023-05-01T04:38:07;92664.00;;;11.73;65.79
59289;BME280;45056;47.602;9.886;2023-05-01T04:40:36;92675.34;;;11.72;65.87
59289;BME280;45056;47.602;9.886;2023-05-01T04:43:04;92664.91;;;11.70;65.86
59289;BME280;45056;47.602;9.886;2023-05-01T04:45:32;92673.38;;;11.72;65.73
59289;BME280;45056;47.602;9.886;2023-05-01T04:48:00;92671.41;;;11.73;65.76
59289;BME280;45056;47.602;9.886;2023-05-01T04:50:28;92672.63;;;11.72;65.71
59289;BME280;45056;47.602;9.886;2023-05-01T04:52:58;92671.09;;;11.71;65.52
59289;BME280;45056;47.602;9.886;2023-05-01T04:55:26;92671.72;;;11.75;65.65
59289;BME280;45056;47.602;9.886;2023-05-01T04:57:54;92678.84;;;11.72;65.75
59289;BME280;45056;47.602;9.886;2023-05-01T05:00:23;92679.59;;;11.73;65.82
59289;BME280;45056;47.602;9.886;2023-05-01T05:02:51;92691.25;;;11.73;65.83
59289;BME280;45056;47.602;9.886;2023-05-01T05:05:19;92688.97;;;11.72;65.86
59289;BME280;45056;47.602;9.886;2023-05-01T05:07:47;92691.41;;;11.69;65.92
59289;BME280;45056;47.602;9.886;2023-05-01T05:10:17;92694.56;;;11.68;65.83
59289;BME280;45056;47.602;9.886;2023-05-01T05:12:45;92691.09;;;11.67;65.76
59289;BME280;45056;47.602;9.886;2023-05-01T05:15:13;92692.59;;;11.68;65.71
59289;BME280;45056;47.602;9.886;2023-05-01T05:17:42;92698.34;;;11.71;65.65
59289;BME280;45056;47.602;9.886;2023-05-01T05:20:11;92692.47;;;11.72;65.54
59289;BME280;45056;47.602;9.886;2023-05-01T05:22:39;92696.22;;;11.75;65.57
59289;BME280;45056;47.602;9.886;2023-05-01T05:25:08;92694.28;;;11.75;65.56
59289;BME280;45056;47.602;9.886;2023-05-01T05:27:37;92689.56;;;11.76;65.45
59289;BME280;45056;47.602;9.886;2023-05-01T05:30:06;92693.50;;;11.75;65.54
59289;BME280;45056;47.602;9.886;2023-05-01T05:32:35;92698.22;;;11.74;65.67
59289;BME280;45056;47.602;9.886;2023-05-01T05:35:04;92696.69;;;11.73;65.52
59289;BME280;45056;47.602;9.886;2023-05-01T05:37:33;92699.13;;;11.71;65.77
59289;BME280;45056;47.602;9.886;2023-05-01T05:40:01;92706.53;;;11.71;65.65
59289;BME280;45056;47.602;9.886;2023-05-01T05:42:29;92697.63;;;11.70;65.76
59289;BME280;45056;47.602;9.886;2023-05-01T05:44:59;92697.63;;;11.70;65.65
59289;BME280;45056;47.602;9.886;2023-05-01T05:47:26;92701.84;;;11.71;65.52
59289;BME280;45056;47.602;9.886;2023-05-01T05:49:55;92693.69;;;11.71;65.69
59289;BME280;45056;47.602;9.886;2023-05-01T05:52:23;92701.69;;;11.75;65.75
59289;BME280;45056;47.602;9.886;2023-05-01T05:54:51;92698.81;;;11.78;65.62
59289;BME280;45056;47.602;9.886;2023-05-01T05:57:19;92704.09;;;11.82;65.45
59289;BME280;45056;47.602;9.886;2023-05-01T05:59:47;92706.81;;;11.82;65.46
59289;BME280;45056;47.602;9.886;2023-05-01T06:02:16;92704.09;;;11.82;65.53
59289;BME280;45056;47.602;9.886;2023-05-01T06:04:44;92705.63;;;11.83;65.34
59289;BME280;45056;47.602;9.886;2023-05-01T06:07:12;92705.63;;;11.83;65.51
59289;BME280;45056;47.602;9.886;2023-05-01T06:09:40;92700.16;;;11.83;65.52
59289;BME280;45056;47.602;9.886;2023-05-01T06:12:08;92704.09;;;11.82;65.57
59289;BME280;45056;47.602;9.886;2023-05-01T06:14:36;92706.81;;;11.82;65.60
59289;BME280;45056;47.602;9.886;2023-05-01T06:17:05;92697.44;;;11.83;65.91
59289;BME280;45056;47.602;9.886;2023-05-01T06:19:35;92705.63;;;11.83;66.04
59289;BME280;45056;47.602;9.886;2023-05-01T06:22:03;92707.59;;;11.82;66.11
59289;BME280;45056;47.602;9.886;2023-05-01T06:24:32;92698.66;;;11.82;65.94
59289;BME280;45056;47.602;9.886;2023-05-01T06:27:02;92703.66;;;11.83;66.06
59289;BME280;45056;47.602;9.886;2023-05-01T06:29:30;92703.19;;;11.85;65.96
59289;BME280;45056;47.602;9.886;2023-05-01T06:31:58;92702.31;;;11.88;65.99
59289;BME280;45056;47.602;9.886;2023-05-01T06:34:25;92708.06;;;11.90;66.14
59289;BME280;45056;47.602;9.886;2023-05-01T06:36:55;92706.06;;;11.91;66.17
59289;BME280;45056;47.602;9.886;2023-05-01T06:39:23;92704.41;;;11.93;66.24
59289;BME280;45056;47.602;9.886;2023-05-01T06:41:51;92701.97;;;11.95;66.28
59289;BME280;45056;47.602;9.886;2023-05-01T06:44:19;92708.94;;;11.96;66.13
59289;BME280;45056;47.602;9.886;2023-05-01T06:46:47;92703.03;;;11.98;66.27
59289;BME280;45056;47.602;9.886;2023-05-01T06:49:15;92705.00;;;11.97;66.42
59289;BME280;45056;47.602;9.886;2023-05-01T06:51:43;92703.78;;;11.98;66.41
59289;BME280;45056;47.602;9.886;2023-05-01T06:54:12;92712.31;;;12.01;66.28
59289;BME280;45056;47.602;9.886;2023-05-01T06:56:40;92709.25;;;11.98;66.45
59289;BME280;45056;47.602;9.886;2023-05-01T06:59:08;92719.84;;;11.96;66.74
59289;BME280;45056;47.602;9.886;2023-05-01T07:01:36;92717.13;;;11.96;66.62
59289;BME280;45056;47.602;9.886;2023-05-01T07:04:04;92707.44;;;11.95;66.78
59289;BME280;45056;47.602;9.886;2023-05-01T07:06:32;92715.16;;;11.97;66.77
59289;BME280;45056;47.602;9.886;2023-05-01T07:09:01;92720.59;;;11.97;66.56
59289;BME280;45056;47.602;9.886;2023-05-01T07:11:32;92720.59;;;11.97;66.61
59289;BME280;45056;47.602;9.886;2023-05-01T07:14:00;92727.56;;;11.98;66.74
59289;BME280;45056;47.602;9.886;2023-05-01T07:16:28;92730.75;;;11.96;66.62
59289;BME280;45056;47.602;9.886;2023-05-01T07:18:56;92724.72;;;11.92;66.75
59289;BME280;45056;47.602;9.886;2023-05-01T07:21:24;92728.66;;;11.91;66.88
59289;BME280;45056;47.602;9.886;2023-05-01T07:23:52;92741.06;;;11.92;66.96
59289;BME280;45056;47.602;9.886;2023-05-01T07:26:20;92732.41;;;11.94;67.05
59289;BME280;45056;47.602;9.886;2023-05-01T07:28:50;92730.75;;;11.96;67.01
59289;BME280;45056;47.602;9.886;2023-05-01T07:31:18;92734.22;;;11.97;66.98
59289;BME280;45056;47.602;9.886;2023-05-01T07:33:46;92715.91;;;11.97;66.85
59289;BME280;45056;47.602;9.886;2023-05-01T07:36:14;92733.50;;;11.96;66.98
59289;BME280;45056;47.602;9.886;2023-05-01T07:38:43;92732.28;;;11.97;66.95
59289;BME280;45056;47.602;9.886;2023-05-01T07:41:11;92734.13;;;12.01;67.02
59289;BME280;45056;47.602;9.886;2023-05-01T07:43:40;92731.25;;;12.04;67.00
59289;BME280;45056;47.602;9.886;2023-05-01T07:46:09;92740.47;;;12.07;67.14
59289;BME280;45056;47.602;9.886;2023-05-01T07:48:38;92747.00;;;12.09;66.91
59289;BME280;45056;47.602;9.886;2023-05-01T07:51:06;92737.59;;;12.10;66.70
59289;BME280;45056;47.602;9.886;2023-05-01T07:53:34;92734.88;;;12.10;66.65
59289;BME280;45056;47.602;9.886;2023-05-01T07:56:05;92745.00;;;12.10;66.73
59289;BME280;45056;47.602;9.886;2023-05-01T07:58:34;92740.75;;;12.09;67.36
59289;BME280;45056;47.602;9.886;2023-05-01T08:01:04;92745.78;;;12.10;67.16
59289;BME280;45056;47.602;9.886;2023-05-01T08:03:34;92744.38;;;12.15;66.64
59289;BME280;45056;47.602;9.886;2023-05-01T08:06:02;92743.19;;;12.16;66.48
59289;BME280;45056;47.602;9.886;2023-05-01T08:08:31;92736.84;;;12.19;66.48
59289;BME280;45056;47.602;9.886;2023-05-01T08:10:59;92743.81;;;12.20;66.38
59289;BME280;45056;47.602;9.886;2023-05-01T08:13:27;92746.97;;;12.19;66.31
59289;BME280;45056;47.602;9.886;2023-05-01T08:15:58;92751.34;;;12.16;66.38
59289;BME280;45056;47.602;9.886;2023-05-01T08:18:27;92752.56;;;12.15;66.61
59289;BME280;45056;47.602;9.886;2023-05-01T08:20:57;92753.03;;;12.14;66.83
59289;BME280;45056;47.602;9.886;2023-05-01T08:23:25;92755.31;;;12.15;66.52
59289;BME280;45056;47.602;9.886;2023-05-01T08:25:53;92752.13;;;12.17;66.51
59289;BME280;45056;47.602;9.886;2023-05-01T08:28:22;92757.16;;;12.18;66.84
59289;BME280;45056;47.602;9.886;2023-05-01T08:30:50;92766.66;;;12.23;66.75
59289;BME280;45056;47.602;9.886;2023-05-01T08:33:18;92755.13;;;12.28;66.63
59289;BME280;45056;47.602;9.886;2023-05-01T08:35:47;92753.47;;;12.31;66.67
59289;BME280;45056;47.602;9.886;2023-05-01T08:38:16;92762.72;;;12.33;66.20
59289;BME280;45056;47.602;9.886;2023-05-01T08:40:50;92760.75;;;12.34;66.20
59289;BME280;45056;47.602;9.886;2023-05-01T08:43:20;92769.84;;;12.31;66.17
59289;BME280;45056;47.602;9.886;2023-05-01T08:45:50;92756.34;;;12.27;66.21
59289;BME280;45056;47.602;9.886;2023-05-01T08:48:24;92762.28;;;12.25;66.12
59289;BME280;45056;47.602;9.886;2023-05-01T08:50:55;92772.13;;;12.23;66.36
59289;BME280;45056;47.602;9.886;2023-05-01T08:53:27;92765.63;;;12.20;66.38
59289;BME280;45056;47.602;9.886;2023-05-01T08:55:59;92766.66;;;12.23;66.70
59289;BME280;45056;47.602;9.886;2023-05-01T08:58:34;92768.03;;;12.27;66.36
59289;BME280;45056;47.602;9.886;2023-05-01T09:01:04;92763.19;;;12.32;66.45
59289;BME280;45056;47.602;9.886;2023-05-01T09:03:36;92759.22;;;12.33;66.22
59289;BME280;45056;47.602;9.886;2023-05-01T09:06:05;92766.97;;;12.34;66.07
59289;BME280;45056;47.602;9.886;2023-05-01T09:08:36;92766.81;;;12.38;66.23
59289;BME280;45056;47.602;9.886;2023-05-01T09:11:04;92772.09;;;12.41;66.38
59289;BME280;45056;47.602;9.886;2023-05-01T09:13:33;92771.94;;;12.45;66.35
59289;BME280;45056;47.602;9.886;2023-05-01T09:16:03;92770.28;;;12.48;66.26
59289;BME280;45056;47.602;9.886;2023-05-01T09:18:33;92768.63;;;12.50;66.29
59289;BME280;45056;47.602;9.886;2023-05-01T09:21:02;92775.59;;;12.51;66.42
59289;BME280;45056;47.602;9.886;2023-05-01T09:23:30;92769.22;;;12.54;66.59
59289;BME280;45056;47.602;9.886;2023-05-01T09:26:03;92764.03;;;12.57;66.53
59289;BME280;45056;47.602;9.886;2023-05-01T09:28:42;92769.31;;;12.60;66.64
59289;BME280;45056;47.602;9.886;2023-05-01T09:31:21;92772.34;;;12.62;66.48
59289;BME280;45056;47.602;9.886;2023-05-01T09:33:50;92777.06;;;12.62;66.32
59289;BME280;45056;47.602;9.886;2023-05-01T09:36:22;92778.00;;;12.59;66.55
59289;BME280;45056;47.602;9.886;2023-05-01T09:38:51;92784.38;;;12.55;67.21
59289;BME280;45056;47.602;9.886;2023-05-01T09:41:21;92791.97;;;12.51;66.93
59289;BME280;45056;47.602;9.886;2023-05-01T09:43:51;92783.47;;;12.49;67.19
59289;BME280;45056;47.602;9.886;2023-05-01T09:46:21;92785.13;;;12.47;66.92
59289;BME280;45056;47.602;9.886;2023-05-01T09:48:51;92779.22;;;12.48;66.92
59289;BME280;45056;47.602;9.886;2023-05-01T09:51:25;92788.31;;;12.54;66.80
59289;BME280;45056;47.602;9.886;2023-05-01T09:53:55;92787.38;;;12.58;66.97
59289;BME280;45056;47.602;9.886;2023-05-01T09:56:27;92779.50;;;12.60;67.08
59289;BME280;45056;47.602;9.886;2023-05-01T10:01:44;92784.03;;;12.63;66.92
59289;BME280;45056;47.602;9.886;2023-05-01T10:04:14;92780.09;;;12.64;67.22
59289;BME280;45056;47.602;9.886;2023-05-01T10:06:42;92785.56;;;12.64;66.74
59289;BME280;45056;47.602;9.886;2023-05-01T10:09:10;92785.56;;;12.64;66.78
59289;BME280;45056;47.602;9.886;2023-05-01T10:11:51;92790.25;;;12.63;66.66
59289;BME280;45056;47.602;9.886;2023-05-01T10:14:22;92791.94;;;12.61;66.77
59289;BME280;45056;47.602;9.886;2023-05-01T10:16:52;92785.25;;;12.62;66.75
59289;BME280;45056;47.602;9.886;2023-05-01T10:19:22;92793.44;;;12.62;67.06
59289;BME280;45056;47.602;9.886;2023-05-01T10:21:50;92797.25;;;12.64;67.23
59289;BME280;45056;47.602;9.886;2023-05-01T10:24:18;92789.66;;;12.68;67.20
59289;BME280;45056;47.602;9.886;2023-05-01T10:26:49;92794.63;;;12.70;67.07
59289;BME280;45056;47.602;9.886;2023-05-01T10:29:19;92798.28;;;12.67;66.64
59289;BME280;45056;47.602;9.886;2023-05-01T10:31:50;92792.06;;;12.66;66.58
59289;BME280;45056;47.602;9.886;2023-05-01T10:34:21;92790.09;;;12.67;66.65
59289;BME280;45056;47.602;9.886;2023-05-01T10:36:57;92795.56;;;12.67;66.68
59289;BME280;45056;47.602;9.886;2023-05-01T10:39:29;92790.09;;;12.67;66.96
59289;BME280;45056;47.602;9.886;2023-05-01T10:42:07;92783.72;;;12.70;67.15
59289;BME280;45056;47.602;9.886;2023-05-01T10:44:41;92789.16;;;12.79;67.66
59289;BME280;45056;47.602;9.886;2023-05-01T10:47:42;92791.88;;;12.89;67.52
59289;BME280;45056;47.602;9.886;2023-05-01T10:50:12;92786.22;;;13.02;67.69
59289;BME280;45056;47.602;9.886;2023-05-01T10:53:15;92784.94;;;13.12;67.39
59289;BME280;45056;47.602;9.886;2023-05-01T10:55:45;92780.53;;;13.15;66.73
59289;BME280;45056;47.602;9.886;2023-05-01T11:01:32;92778.41;;;13.19;67.04
59289;BME280;45056;47.602;9.886;2023-05-01T11:04:04;92773.19;;;13.30;67.41
59289;BME280;45056;47.602;9.886;2023-05-01T11:06:35;92775.41;;;13.41;67.20
59289;BME280;45056;47.602;9.886;2023-05-01T11:09:34;92777.66;;;13.52;66.64
59289;BME280;45056;47.602;9.886;2023-05-01T11:12:04;92774.84;;;13.61;66.51
59289;BME280;45056;47.602;9.886;2023-05-01T11:15:01;92764.22;;;13.63;65.74
59289;BME280;45056;47.602;9.886;2023-05-01T11:17:47;92765.16;;;13.60;65.29
59289;BME280;45056;47.602;9.886;2023-05-01T11:23:22;92765.72;;;13.64;65.17
59289;BME280;45056;47.602;9.886;2023-05-01T11:26:01;92766.59;;;13.70;65.38
59289;BME280;45056;47.602;9.886;2023-05-01T11:28:32;92767.94;;;13.75;64.58
59289;BME280;45056;47.602;9.886;2023-05-01T11:31:02;92769.72;;;13.78;64.37
59289;BME280;45056;47.602;9.886;2023-05-01T11:33:32;92764.25;;;13.78;64.22
59289;BME280;45056;47.602;9.886;2023-05-01T11:36:01;92767.78;;;13.79;64.23
59289;BME280;45056;47.602;9.886;2023-05-01T11:38:30;92770.78;;;13.81;64.35
59289;BME280;45056;47.602;9.886;2023-05-01T11:41:00;92764.09;;;13.82;64.12
59289;BME280;45056;47.602;9.886;2023-05-01T11:43:30;92769.38;;;13.85;64.03
59289;BME280;45056;47.602;9.886;2023-05-01T11:45:58;92761.78;;;13.90;64.24
59289;BME280;45056;47.602;9.886;2023-05-01T11:48:31;92764.59;;;13.95;64.53
59289;BME280;45056;47.602;9.886;2023-05-01T11:50:59;92766.69;;;14.00;64.87
59289;BME280;45056;47.602;9.886;2023-05-01T11:53:28;92771.03;;;14.07;64.54
59289;BME280;45056;47.602;9.886;2023-05-01T11:55:56;92766.63;;;14.10;64.38
59289;BME280;45056;47.602;9.886;2023-05-01T11:58:32;92763.88;;;14.10;64.28
59289;BME280;45056;47.602;9.886;2023-05-01T12:01:01;92769.06;;;14.08;64.43
59289;BME280;45056;47.602;9.886;2023-05-01T12:03:41;92764.34;;;14.08;64.48
59289;BME280;45056;47.602;9.886;2023-05-01T12:06:10;92762.19;;;14.12;64.53
59289;BME280;45056;47.602;9.886;2023-05-01T12:08:47;92764.56;;;14.20;64.48
59289;BME280;45056;47.602;9.886;2023-05-01T12:11:18;92766.66;;;14.25;63.74
59289;BME280;45056;47.602;9.886;2023-05-01T12:13:49;92763.06;;;14.34;63.70
59289;BME280;45056;47.602;9.886;2023-05-01T12:16:18;92761.47;;;14.42;63.91
59289;BME280;45056;47.602;9.886;2023-05-01T12:18:47;92757.53;;;14.43;63.72
59289;BME280;45056;47.602;9.886;2023-05-01T12:21:15;92762.06;;;14.46;63.53
59289;BME280;45056;47.602;9.886;2023-05-01T12:23:44;92762.63;;;14.50;63.58
59289;BME280;45056;47.602;9.886;2023-05-01T12:26:16;92767.91;;;14.54;63.41
59289;BME280;45056;47.602;9.886;2023-05-01T12:28:52;92760.25;;;14.58;63.11
59289;BME280;45056;47.602;9.886;2023-05-01T12:31:22;92763.09;;;14.64;62.77
59289;BME280;45056;47.602;9.886;2023-05-01T12:33:56;92764.31;;;14.63;61.51
59289;BME280;45056;47.602;9.886;2023-05-01T12:36:28;92763.28;;;14.60;61.10
59289;BME280;45056;47.602;9.886;2023-05-01T12:38:58;92760.72;;;14.56;61.19
59289;BME280;45056;47.602;9.886;2023-05-01T12:41:36;92762.91;;;14.52;61.05
59289;BME280;45056;47.602;9.886;2023-05-01T12:44:16;92761.09;;;14.49;61.37
59289;BME280;45056;47.602;9.886;2023-05-01T12:46:54;92761.28;;;14.46;61.64
59289;BME280;45056;47.602;9.886;2023-05-01T12:49:24;92760.72;;;14.41;61.51
59289;BME280;45056;47.602;9.886;2023-05-01T12:51:54;92766.00;;;14.45;61.74
59289;BME280;45056;47.602;9.886;2023-05-01T12:54:27;92765.63;;;14.52;61.60
59289;BME280;45056;47.602;9.886;2023-05-01T12:57:05;92765.25;;;14.60;62.21
59289;BME280;45056;47.602;9.886;2023-05-01T12:59:35;92754.88;;;14.64;61.85
59289;BME280;45056;47.602;9.886;2023-05-01T13:02:05;92758.66;;;14.66;61.29
59289;BME280;45056;47.602;9.886;2023-05-01T13:04:38;92749.38;;;14.64;61.36
59289;BME280;45056;47.602;9.886;2023-05-01T13:07:10;92756.38;;;14.65;61.68
59289;BME280;45056;47.602;9.886;2023-05-01T13:09:50;92752.41;;;14.66;62.19
59289;BME280;45056;47.602;9.886;2023-05-01T13:12:20;92746.00;;;14.69;62.11
59289;BME280;45056;47.602;9.886;2023-05-01T13:14:49;92750.25;;;14.70;61.57
59289;BME280;45056;47.602;9.886;2023-05-01T13:17:22;92750.72;;;14.68;62.02
59289;BME280;45056;47.602;9.886;2023-05-01T13:19:54;92746.94;;;14.66;61.95
59289;BME280;45056;47.602;9.886;2023-05-01T13:22:29;92748.09;;;14.59;61.63
59289;BME280;45056;47.602;9.886;2023-05-01T13:24:59;92757.44;;;14.52;61.34
59289;BME280;45056;47.602;9.886;2023-05-01T13:27:28;92747.41;;;14.49;61.20
59289;BME280;45056;47.602;9.886;2023-05-01T13:29:58;92743.16;;;14.48;61.17
59289;BME280;45056;47.602;9.886;2023-05-01T13:32:27;92752.91;;;14.49;61.29
59289;BME280;45056;47.602;9.886;2023-05-01T13:34:59;92752.59;;;14.47;61.46